Time;durP1;ratioP1;P1;durP2;ratioP2;P2;SDS_P1;SDS_P2;PMS_P1;PMS_P2;Temp;Humidity;BMP_temperature;BMP_pressure;BME280_temperature;BME280_humidity;BME280_pressure;Samples;Min_cycle;Max_cycle;Signal;HPM_P1;HPM_P2
2023/04/06 00:01:46;;;;;;;7.53;5.22;;;;;;;6.36;75.65;148902.88;5042076;28;20029;-68
2023/04/06 00:04:12;;;;;;;6.43;5.35;;;;;;;6.27;75.38;148881.16;5058615;28;20481;-68
2023/04/06 00:06:38;;;;;;;7.70;5.50;;;;;;;6.30;75.20;148887.50;5043245;28;20029;-69
2023/04/06 00:09:03;;;;;;;7.88;5.47;;;;;;;6.10;76.09;148837.66;5025405;28;20021;-68
2023/04/06 00:11:29;;;;;;;6.82;5.47;;;;;;;6.19;76.03;148860.69;5043208;28;20092;-68
2023/04/06 00:13:55;;;;;;;6.22;5.60;;;;;;;6.12;75.91;148844.06;5043009;28;20029;-67
2023/04/06 00:16:20;;;;;;;5.55;4.97;;;;;;;6.17;76.02;148855.56;5043011;28;20317;-68
2023/04/06 00:18:46;;;;;;;7.28;5.78;;;;;;;6.21;75.83;148867.09;5041799;28;20033;-67
2023/04/06 00:21:13;;;;;;;6.88;5.35;;;;;;;6.21;76.26;148867.09;5043239;28;20021;-68
2023/04/06 00:23:39;;;;;;;8.98;6.15;;;;;;;6.17;75.93;148855.56;5043061;28;20026;-67
2023/04/06 00:26:05;;;;;;;6.18;5.35;;;;;;;6.19;76.35;148860.69;5042542;28;20035;-69
2023/04/06 00:28:30;;;;;;;6.57;5.90;;;;;;;6.00;76.38;148814.69;5042280;28;20096;-69
2023/04/06 00:30:56;;;;;;;6.63;5.95;;;;;;;6.07;76.37;148831.31;5040370;28;20092;-70
2023/04/06 00:33:22;;;;;;;5.95;5.13;;;;;;;6.07;76.37;148831.31;5024603;28;20034;-69
2023/04/06 00:35:48;;;;;;;7.80;6.00;;;;;;;6.04;76.70;148823.63;5044717;28;20037;-68
2023/04/06 00:38:15;;;;;;;5.93;5.07;;;;;;;6.19;76.26;148861.97;5046708;28;20029;-69
2023/04/06 00:40:41;;;;;;;6.57;5.22;;;;;;;6.01;76.50;148815.97;5046738;28;20350;-69
2023/04/06 00:43:09;;;;;;;8.63;5.32;;;;;;;6.08;76.57;148833.84;5062114;28;20097;-70
2023/04/06 00:45:35;;;;;;;6.10;5.50;;;;;;;6.06;76.41;148828.75;5046806;28;20033;-69
2023/04/06 00:48:01;;;;;;;8.00;6.22;;;;;;;6.08;76.24;148832.59;5047111;28;20178;-69
2023/04/06 00:50:27;;;;;;;6.80;5.43;;;;;;;6.08;76.04;148832.59;5046576;28;20036;-68
2023/04/06 00:52:55;;;;;;;6.32;5.45;;;;;;;6.14;75.98;148847.91;5046706;28;20060;-69
2023/04/06 00:55:20;;;;;;;10.48;5.78;;;;;;;6.01;76.46;148815.97;5046410;28;20030;-69
2023/04/06 00:57:47;;;;;;;6.90;5.47;;;;;;;6.09;76.10;148836.41;5046449;28;20108;-68
2023/04/06 01:00:13;;;;;;;8.57;5.78;;;;;;;6.09;76.15;148835.16;5046300;28;20026;-68
2023/04/06 01:02:39;;;;;;;9.05;6.10;;;;;;;5.84;77.12;148773.75;5026596;28;20026;-68
2023/04/06 01:05:05;;;;;;;10.93;6.10;;;;;;;5.98;76.33;148808.28;5042183;28;20041;-68
2023/04/06 01:07:31;;;;;;;7.95;5.95;;;;;;;5.95;76.77;148800.59;5034601;28;20034;-68
2023/04/06 01:09:57;;;;;;;12.10;5.97;;;;;;;5.84;76.44;148775.03;5047764;28;20028;-69
2023/04/06 01:12:23;;;;;;;6.25;5.63;;;;;;;5.91;76.50;148790.38;5046433;28;20096;-68
2023/04/06 01:14:49;;;;;;;8.68;5.60;;;;;;;5.87;76.86;148781.41;5046127;28;20025;-68
2023/04/06 01:17:15;;;;;;;8.57;5.40;;;;;;;5.84;76.57;148773.75;5041679;28;20060;-68
2023/04/06 01:19:41;;;;;;;8.13;5.80;;;;;;;5.88;76.50;148785.22;5026517;28;20037;-68
2023/04/06 01:22:07;;;;;;;6.97;6.28;;;;;;;5.79;77.05;148761.00;5033537;28;20037;-68
2023/04/06 01:24:33;;;;;;;8.93;6.03;;;;;;;5.67;77.11;148732.88;5046267;28;20057;-69
2023/04/06 01:27:00;;;;;;;7.07;6.13;;;;;;;5.78;77.10;148758.44;5046124;28;20049;-68
2023/04/06 01:29:26;;;;;;;9.60;6.35;;;;;;;5.74;77.21;148749.47;5046101;28;20037;-67
2023/04/06 01:31:51;;;;;;;8.77;6.30;;;;;;;5.75;77.20;148752.03;5035618;28;20025;-68
2023/04/06 01:34:17;;;;;;;8.55;6.15;;;;;;;5.56;77.72;148704.78;5034597;28;20033;-67
2023/04/06 01:36:43;;;;;;;9.25;6.25;;;;;;;5.70;77.50;148740.53;5045793;28;20040;-67
2023/04/06 01:39:09;;;;;;;7.75;6.20;;;;;;;5.76;77.37;148753.28;5045796;28;20084;-66
2023/04/06 01:41:34;;;;;;;7.07;6.30;;;;;;;5.78;77.16;148758.44;5045818;28;20100;-66
2023/04/06 01:44:01;;;;;;;8.23;6.50;;;;;;;5.64;77.50;148723.91;5045790;28;20029;-66
2023/04/06 01:46:27;;;;;;;7.47;6.68;;;;;;;5.60;77.86;148713.69;5044728;28;20048;-65
2023/04/06 01:48:52;;;;;;;7.68;6.47;;;;;;;5.63;77.52;148721.34;5045167;28;20042;-66
2023/04/06 01:51:18;;;;;;;8.18;5.93;;;;;;;5.63;77.88;148721.34;5045289;28;20025;-68
2023/04/06 01:53:44;;;;;;;8.55;6.70;;;;;;;5.61;77.70;148717.53;5045738;28;20055;-67
2023/04/06 01:56:10;;;;;;;7.53;6.47;;;;;;;5.54;77.74;148699.66;5045392;28;20075;-69
2023/04/06 01:58:35;;;;;;;8.85;7.10;;;;;;;5.41;77.92;148666.47;5045471;28;20029;-70
2023/04/06 02:01:01;;;;;;;9.55;6.78;;;;;;;5.44;78.03;148675.38;5039192;28;20029;-69
2023/04/06 02:03:27;;;;;;;9.48;6.90;;;;;;;5.44;78.05;148675.38;5025551;28;20108;-70
2023/04/06 02:05:52;;;;;;;7.07;5.97;;;;;;;5.30;78.73;148640.91;5045303;28;20034;-68
2023/04/06 02:08:18;;;;;;;6.80;5.75;;;;;;;5.48;78.08;148684.34;5045309;28;20180;-70
2023/04/06 02:10:43;;;;;;;8.40;6.40;;;;;;;5.43;77.90;148671.53;5045227;28;20030;-69
2023/04/06 02:13:09;;;;;;;9.32;6.32;;;;;;;5.40;77.84;148663.88;5045177;28;20128;-70
2023/04/06 02:15:35;;;;;;;7.68;6.35;;;;;;;5.55;77.82;148702.22;5045013;28;20055;-68
2023/04/06 02:18:00;;;;;;;8.65;6.13;;;;;;;5.49;77.86;148686.91;5040197;28;20044;-67
2023/04/06 02:20:26;;;;;;;8.32;6.82;;;;;;;5.31;78.06;148643.44;5025040;28;20037;-67
2023/04/06 02:22:52;;;;;;;8.15;6.60;;;;;;;5.29;77.83;148637.09;5037960;28;20364;-68
2023/04/06 02:25:17;;;;;;;9.15;6.35;;;;;;;5.28;78.19;148635.78;5044696;28;20381;-67
2023/04/06 02:27:43;;;;;;;7.50;6.38;;;;;;;5.34;78.48;148649.84;5044983;28;20068;-68
2023/04/06 02:30:09;;;;;;;8.10;6.40;;;;;;;5.14;78.66;148600.03;5044230;28;20083;-67
2023/04/06 02:32:35;;;;;;;7.88;5.95;;;;;;;5.35;77.87;148653.66;5028091;28;20079;-68
2023/04/06 02:35:00;;;;;;;8.48;7.22;;;;;;;5.04;78.61;148574.50;5038315;28;20061;-69
2023/04/06 02:37:26;;;;;;;6.28;5.53;;;;;;;5.13;78.85;148597.47;5044515;28;20103;-69
2023/04/06 02:39:52;;;;;;;8.65;6.28;;;;;;;5.10;79.14;148589.81;5044521;28;20242;-67
2023/04/06 02:42:17;;;;;;;8.38;6.10;;;;;;;5.14;78.34;148600.03;5044558;28;20040;-68
2023/04/06 02:44:43;;;;;;;7.65;6.03;;;;;;;5.12;78.88;148594.94;5044379;28;20041;-69
2023/04/06 02:47:09;;;;;;;9.68;6.43;;;;;;;5.22;78.15;148620.47;5044377;28;20033;-70
2023/04/06 02:49:35;;;;;;;6.72;6.03;;;;;;;5.16;77.95;148605.16;5044321;28;20033;-70
2023/04/06 02:52:02;;;;;;;7.25;6.28;;;;;;;5.08;78.66;148586.00;5044396;28;20310;-69
2023/04/06 02:54:27;;;;;;;7.30;6.53;;;;;;;5.14;78.53;148601.28;5044207;28;20041;-69
2023/04/06 02:56:53;;;;;;;9.93;5.90;;;;;;;5.12;78.27;148594.94;5043275;28;20052;-69
2023/04/06 02:59:18;;;;;;;7.60;6.10;;;;;;;5.18;78.22;148610.25;5031906;28;20199;-70
2023/04/06 03:01:44;;;;;;;6.90;5.80;;;;;;;5.11;78.63;148592.38;5034823;28;20067;-69
2023/04/06 03:04:10;;;;;;;8.93;6.13;;;;;;;5.13;78.12;148597.47;5044107;28;20032;-69
2023/04/06 03:06:36;;;;;;;7.07;6.18;;;;;;;5.03;78.34;148573.25;5044198;28;20029;-70
2023/04/06 03:09:02;;;;;;;7.85;6.03;;;;;;;5.19;78.58;148612.81;5059650;28;20025;-68
2023/04/06 03:11:28;;;;;;;8.88;5.93;;;;;;;5.16;78.14;148605.16;5043810;28;20029;-69
2023/04/06 03:13:53;;;;;;;9.50;6.15;;;;;;;5.26;78.00;148630.69;5044212;28;20237;-68
2023/04/06 03:16:19;;;;;;;6.57;5.68;;;;;;;5.26;77.33;148629.38;5043780;28;20033;-70
2023/04/06 03:18:44;;;;;;;6.10;5.43;;;;;;;5.26;77.87;148630.69;5043924;28;20034;-69
2023/04/06 03:21:10;;;;;;;7.43;5.60;;;;;;;5.13;78.02;148598.78;5043782;28;20187;-68
2023/04/06 03:23:36;;;;;;;8.35;5.78;;;;;;;4.82;78.82;148520.91;5025669;28;20279;-69
2023/04/06 03:26:03;;;;;;;6.68;5.93;;;;;;;5.01;78.96;148568.13;5037709;28;20060;-70
2023/04/06 03:28:29;;;;;;;8.38;5.90;;;;;;;5.09;78.89;148587.25;5043613;28;20037;-68
2023/04/06 03:30:54;;;;;;;7.32;5.35;;;;;;;4.90;78.36;148541.28;5043469;28;20033;-69
2023/04/06 03:33:20;;;;;;;6.75;5.70;;;;;;;5.06;78.60;148579.59;5043319;28;20061;-69
2023/04/06 03:35:46;;;;;;;8.88;6.10;;;;;;;4.77;78.69;148509.38;5042309;28;20314;-68
2023/04/06 03:38:13;;;;;;;7.32;5.70;;;;;;;5.10;78.13;148591.13;5043277;28;20049;-69
2023/04/06 03:40:38;;;;;;;8.10;5.90;;;;;;;4.93;78.14;148547.69;5042007;28;20029;-68
2023/04/06 03:43:04;;;;;;;10.07;5.78;;;;;;;4.98;78.60;148561.72;5042982;28;20033;-69
2023/04/06 03:45:30;;;;;;;8.18;5.50;;;;;;;5.04;78.42;148574.50;5043067;28;20372;-69
2023/04/06 03:47:55;;;;;;;5.70;4.88;;;;;;;5.13;78.05;148597.47;5043457;28;20087;-68
2023/04/06 03:50:21;;;;;;;7.20;5.60;;;;;;;5.05;78.23;148577.06;5043350;28;20105;-68
2023/04/06 03:52:47;;;;;;;9.50;5.43;;;;;;;5.16;77.78;148606.44;5042150;28;20022;-69
2023/04/06 03:55:12;;;;;;;10.15;5.70;;;;;;;5.22;77.56;148620.47;5042926;28;20029;-69
2023/04/06 03:57:38;;;;;;;8.60;5.72;;;;;;;5.05;78.01;148577.06;5043290;28;20025;-69
2023/04/06 04:00:05;;;;;;;12.13;6.28;;;;;;;5.19;77.61;148614.09;5042144;28;20033;-68
2023/04/06 04:02:30;;;;;;;10.85;5.47;;;;;;;5.15;77.68;148603.88;5008131;28;20342;-69
2023/04/06 04:04:56;;;;;;;10.85;6.35;;;;;;;5.12;77.75;148594.94;5035844;28;20029;-69
2023/04/06 04:07:21;;;;;;;9.02;5.45;;;;;;;4.99;77.29;148564.28;5042892;28;20022;-68
2023/04/06 04:09:47;;;;;;;7.60;5.88;;;;;;;5.18;77.12;148610.25;5042442;28;20079;-69
2023/04/06 04:12:14;;;;;;;7.80;5.38;;;;;;;5.24;77.23;148624.31;5043114;28;20076;-69
2023/04/06 04:14:40;;;;;;;8.63;5.88;;;;;;;5.25;76.95;148628.13;5042869;28;20064;-69
2023/04/06 04:17:05;;;;;;;9.48;5.88;;;;;;;5.10;77.66;148591.13;5038894;28;20290;-71
2023/04/06 04:19:31;;;;;;;9.90;5.85;;;;;;;5.23;77.43;148623.03;5025866;28;20281;-70
2023/04/06 04:21:57;;;;;;;8.23;5.47;;;;;;;5.41;76.40;148666.47;5027427;28;20095;-71
2023/04/06 04:24:22;;;;;;;7.35;5.15;;;;;;;5.43;76.39;148672.84;5043078;28;20042;-70
2023/04/06 04:26:48;;;;;;;6.38;5.68;;;;;;;5.53;76.13;148697.13;5043030;28;20075;-69
2023/04/06 04:29:13;;;;;;;6.18;5.13;;;;;;;5.47;76.45;148681.75;5042780;28;20205;-70
2023/04/06 04:31:39;;;;;;;7.40;4.95;;;;;;;5.50;76.19;148690.72;5034365;28;20027;-70
2023/04/06 04:34:06;;;;;;;7.57;5.45;;;;;;;5.69;75.60;148736.72;5028479;28;20083;-69
2023/04/06 04:36:32;;;;;;;8.55;5.03;;;;;;;5.47;75.15;148681.75;5043085;28;20049;-69
2023/04/06 04:39:00;;;;;;;7.65;5.18;;;;;;;5.67;75.28;148732.88;5042939;28;20033;-70
2023/04/06 04:41:26;;;;;;;6.55;4.45;;;;;;;5.81;74.96;148766.09;5042757;28;20260;-69
2023/04/06 04:43:52;;;;;;;9.38;5.25;;;;;;;5.89;74.94;148786.53;5042932;28;20345;-71
2023/04/06 04:46:17;;;;;;;8.82;5.00;;;;;;;5.87;74.64;148782.72;5042464;28;20021;-70
2023/04/06 04:48:43;;;;;;;5.80;4.53;;;;;;;5.91;74.06;148791.63;5042767;28;20026;-70
2023/04/06 04:51:09;;;;;;;7.88;4.95;;;;;;;5.74;74.62;148749.47;5042603;28;20022;-69
2023/04/06 04:53:34;;;;;;;8.23;4.93;;;;;;;5.88;74.09;148785.22;5042680;28;20025;-69
2023/04/06 04:56:01;;;;;;;5.95;4.28;;;;;;;5.74;74.87;148749.47;5042648;28;20026;-71
2023/04/06 04:58:26;;;;;;;6.43;4.90;;;;;;;5.61;74.94;148717.53;5042456;28;20033;-70
2023/04/06 05:00:52;;;;;;;7.90;4.65;;;;;;;5.68;74.75;148735.41;5042242;28;20206;-71
2023/04/06 05:03:26;;;;;;;7.07;4.22;;;;;;;5.90;74.11;148789.09;5040852;28;20328;-69
2023/04/06 05:05:52;;;;;;;6.00;4.38;;;;;;;6.00;74.01;148814.69;5030335;28;20033;-70
2023/04/06 05:08:18;;;;;;;5.57;4.30;;;;;;;6.09;73.28;148835.16;5033027;28;20029;-69
2023/04/06 05:10:44;;;;;;;5.85;4.20;;;;;;;5.96;73.36;148804.41;5031126;28;20036;-70
2023/04/06 05:13:10;;;;;;;10.50;4.75;;;;;;;6.31;72.90;148891.34;5034954;28;20021;-69
2023/04/06 05:15:38;;;;;;;5.03;4.25;;;;;;;6.39;72.47;148911.81;5026946;28;20081;-70
2023/04/06 05:18:07;;;;;;;9.23;4.32;;;;;;;6.47;71.88;148929.69;5041432;28;20031;-71
2023/04/06 05:20:34;;;;;;;5.38;4.05;;;;;;;6.41;71.39;148915.63;5034444;28;20041;-69
2023/04/06 05:23:00;;;;;;;5.95;4.05;;;;;;;6.55;71.84;148951.41;5035997;28;20052;-71
2023/04/06 05:25:26;;;;;;;8.88;4.53;;;;;;;6.61;71.08;148964.22;5042507;28;20013;-70
2023/04/06 05:27:52;;;;;;;8.65;4.40;;;;;;;6.46;71.07;148927.16;5051442;28;20101;-70
2023/04/06 05:30:18;;;;;;;12.35;4.65;;;;;;;6.68;70.92;148982.13;5049920;28;20060;-71
2023/04/06 05:32:44;;;;;;;11.90;4.63;;;;;;;6.93;70.63;149044.78;5036126;28;20041;-68
2023/04/06 05:35:10;;;;;;;6.15;4.20;;;;;;;6.79;70.14;149010.25;5039657;28;20071;-68
2023/04/06 05:37:36;;;;;;;6.97;4.05;;;;;;;6.66;70.75;148977.03;5034724;28;20334;-69
2023/04/06 05:40:02;;;;;;;7.40;3.90;;;;;;;6.59;71.06;148960.38;5037647;28;20061;-70
2023/04/06 05:42:39;;;;;;;5.93;4.22;;;;;;;6.98;69.81;149056.28;5026162;28;20022;-69
2023/04/06 05:45:09;;;;;;;6.90;4.40;;;;;;;7.36;68.34;149150.94;5026789;28;20088;-70
2023/04/06 05:47:35;;;;;;;10.23;4.60;;;;;;;7.90;66.97;149285.28;5053656;28;20014;-70
2023/04/06 05:50:01;;;;;;;7.72;4.18;;;;;;;8.41;65.79;149412.03;5033428;28;20038;-70
2023/04/06 05:52:26;;;;;;;9.40;4.35;;;;;;;8.52;65.19;149438.94;5032181;28;20037;-70
2023/04/06 05:54:52;;;;;;;5.55;3.83;;;;;;;8.08;64.69;149331.38;5038301;28;20033;-70
2023/04/06 05:57:18;;;;;;;7.78;4.47;;;;;;;8.48;65.05;149428.69;5034689;28;20064;-69
2023/04/06 05:59:44;;;;;;;11.70;4.40;;;;;;;8.93;64.99;149542.66;5033495;28;20286;-69
2023/04/06 06:02:09;;;;;;;10.98;4.70;;;;;;;9.06;63.19;149574.66;5033938;28;20038;-70
2023/04/06 06:04:35;;;;;;;7.97;4.07;;;;;;;9.03;61.90;149565.72;5033026;28;20222;-69
2023/04/06 06:07:00;;;;;;;9.13;4.28;;;;;;;9.20;62.33;149609.25;5033454;28;20045;-70
2023/04/06 06:09:26;;;;;;;11.73;4.47;;;;;;;9.69;61.03;149731.03;5034388;28;20040;-71
2023/04/06 06:11:52;;;;;;;8.90;4.15;;;;;;;9.87;60.06;149775.84;5035459;28;20101;-72
2023/04/06 06:14:17;;;;;;;9.10;4.20;;;;;;;9.67;59.63;149725.88;5033246;28;20034;-69
2023/04/06 06:16:43;;;;;;;5.22;3.90;;;;;;;9.83;60.67;149766.91;5033331;28;20036;-71
2023/04/06 06:19:09;;;;;;;6.35;3.95;;;;;;;9.97;60.16;149801.47;5034965;28;20021;-71
2023/04/06 06:21:34;;;;;;;11.75;4.50;;;;;;;10.18;59.61;149854.03;5032774;28;20041;-73
2023/04/06 06:24:00;;;;;;;9.18;3.78;;;;;;;10.11;59.06;149834.84;5033809;28;20036;-72
2023/04/06 06:26:26;;;;;;;9.82;3.90;;;;;;;10.05;59.28;149819.41;5033433;28;20053;-71
2023/04/06 06:28:51;;;;;;;8.95;4.10;;;;;;;10.47;59.04;149925.88;5030604;28;20021;-72
2023/04/06 06:31:20;;;;;;;8.25;3.88;;;;;;;10.72;57.54;149987.47;5031211;28;20052;-73
2023/04/06 06:33:47;;;;;;;5.57;4.00;;;;;;;10.94;56.80;150042.59;5044897;28;20109;-71
2023/04/06 06:36:13;;;;;;;7.03;4.00;;;;;;;10.94;55.48;150041.34;5043793;28;20029;-71
2023/04/06 06:38:39;;;;;;;6.68;3.90;;;;;;;10.74;56.38;149992.59;5044683;28;20039;-71
2023/04/06 06:41:04;;;;;;;7.43;3.58;;;;;;;11.55;55.39;150194.03;5059907;28;20056;-70
2023/04/06 06:43:30;;;;;;;7.38;3.85;;;;;;;11.65;53.06;150219.69;5044577;28;20064;-71
2023/04/06 06:45:56;;;;;;;8.30;4.47;;;;;;;12.24;52.75;150367.38;5044904;28;20093;-71
2023/04/06 06:48:21;;;;;;;9.00;4.28;;;;;;;11.75;52.30;150245.34;5044695;28;20044;-70
2023/04/06 06:50:48;;;;;;;11.88;4.70;;;;;;;11.69;53.79;150228.69;5043095;28;20277;-71
2023/04/06 06:53:14;;;;;;;14.77;4.25;;;;;;;12.49;52.40;150429.00;5059651;28;20029;-71
2023/04/06 06:55:40;;;;;;;7.47;3.92;;;;;;;12.73;51.61;150488.13;5044398;28;20026;-70
2023/04/06 06:58:06;;;;;;;7.65;3.80;;;;;;;12.91;50.62;150534.38;5059706;28;20028;-71
2023/04/06 07:00:32;;;;;;;10.18;3.70;;;;;;;12.70;50.51;150480.41;5044879;28;20029;-72
2023/04/06 07:02:58;;;;;;;4.82;3.83;;;;;;;13.20;49.96;150605.03;5025227;28;20021;-72
2023/04/06 07:05:23;;;;;;;9.27;4.15;;;;;;;13.23;50.14;150612.75;5039132;28;20132;-71
2023/04/06 07:07:49;;;;;;;6.82;4.40;;;;;;;13.86;48.91;150770.88;5059918;28;20040;-72
2023/04/06 07:10:14;;;;;;;6.30;3.88;;;;;;;13.56;48.80;150696.31;5043792;28;20041;-72
2023/04/06 07:12:40;;;;;;;10.18;4.07;;;;;;;14.46;46.87;150920.03;5043995;28;20043;-72
2023/04/06 07:15:06;;;;;;;8.52;4.18;;;;;;;15.18;45.46;151101.47;5043820;28;20017;-72
2023/04/06 07:17:32;;;;;;;11.90;4.32;;;;;;;14.83;44.94;151012.69;5043985;28;20034;-72
2023/04/06 07:19:58;;;;;;;12.90;4.70;;;;;;;15.07;45.64;151073.16;5044095;28;20079;-71
2023/04/06 07:22:23;;;;;;;8.18;4.00;;;;;;;15.81;43.83;151257.28;5043972;28;20041;-73
2023/04/06 07:24:49;;;;;;;6.78;3.92;;;;;;;15.49;43.47;151178.72;5043829;28;20079;-73
2023/04/06 07:27:16;;;;;;;7.60;3.65;;;;;;;15.15;42.98;151092.50;5043834;28;20049;-70
2023/04/06 07:29:42;;;;;;;9.55;3.90;;;;;;;14.60;44.43;150954.78;5035924;28;20405;-72
2023/04/06 07:32:07;;;;;;;12.43;3.65;;;;;;;13.67;46.25;150723.31;5035686;28;20048;-72
2023/04/06 07:34:33;;;;;;;8.75;3.40;;;;;;;13.85;46.21;150768.28;5034824;28;20038;-70
2023/04/06 07:37:00;;;;;;;10.43;3.50;;;;;;;14.17;45.41;150846.75;5033347;28;20026;-71
2023/04/06 07:39:26;;;;;;;9.88;4.00;;;;;;;14.12;45.17;150835.16;5028752;28;20037;-70
2023/04/06 07:41:52;;;;;;;8.02;4.03;;;;;;;13.56;45.93;150696.31;5034912;28;20290;-71
2023/04/06 07:44:18;;;;;;;7.63;3.70;;;;;;;13.45;46.91;150668.03;5032033;28;20044;-70
2023/04/06 07:46:44;;;;;;;8.00;3.47;;;;;;;13.46;47.32;150670.59;5036859;28;20033;-70
2023/04/06 07:49:09;;;;;;;8.80;3.53;;;;;;;12.66;48.13;150470.13;5054229;28;20026;-70
2023/04/06 07:51:39;;;;;;;10.10;5.50;;;;;;;13.34;46.13;150639.69;5038941;28;20269;-74
2023/04/06 07:54:05;;;;;;;8.05;3.65;;;;;;;12.87;47.49;150524.06;5023777;28;20033;-72
2023/04/06 07:56:31;;;;;;;9.90;3.60;;;;;;;13.30;47.72;150632.00;5038779;28;20093;-70
2023/04/06 07:58:57;;;;;;;6.82;3.00;;;;;;;12.66;49.18;150470.13;5038145;28;20090;-75
2023/04/06 08:01:24;;;;;;;5.57;3.10;;;;;;;13.08;47.93;150575.44;5040336;28;20230;-72
2023/04/06 08:03:50;;;;;;;8.43;3.20;;;;;;;13.51;46.90;150683.47;5032492;28;20079;-73
2023/04/06 08:06:16;;;;;;;9.75;3.20;;;;;;;13.23;46.77;150612.75;5049634;28;20030;-74
2023/04/06 08:08:42;;;;;;;6.95;3.80;;;;;;;13.96;45.94;150796.56;5037460;28;20024;-72
2023/04/06 08:11:08;;;;;;;5.28;3.35;;;;;;;14.39;46.09;150902.03;5037488;28;20025;-73
2023/04/06 08:13:35;;;;;;;9.90;3.67;;;;;;;14.04;44.95;150814.56;5038436;28;20126;-74
2023/04/06 08:16:01;;;;;;;11.55;3.25;;;;;;;14.56;45.56;150945.75;5031243;28;20476;-72
2023/04/06 08:18:26;;;;;;;7.93;3.15;;;;;;;14.04;45.09;150815.88;5037883;28;20040;-71
2023/04/06 08:20:52;;;;;;;10.27;3.05;;;;;;;14.39;44.82;150903.28;5029965;28;20030;-70
2023/04/06 08:23:18;;;;;;;8.93;3.17;;;;;;;12.76;47.14;150495.81;5040329;28;20337;-69
2023/04/06 08:25:44;;;;;;;7.20;3.13;;;;;;;12.95;46.39;150544.66;5043466;28;20036;-69
2023/04/06 08:28:09;;;;;;;10.15;3.30;;;;;;;13.48;47.02;150674.47;5042542;28;20076;-70
2023/04/06 08:30:35;;;;;;;8.15;3.40;;;;;;;13.67;46.76;150722.00;5042922;28;20029;-70
2023/04/06 08:33:01;;;;;;;8.80;2.92;;;;;;;13.61;46.01;150709.16;5042385;28;20276;-71
2023/04/06 08:35:27;;;;;;;9.45;3.03;;;;;;;13.33;45.93;150637.16;5036519;28;20222;-70
2023/04/06 08:37:53;;;;;;;7.28;2.72;;;;;;;13.51;45.80;150683.47;5041526;28;20041;-70
2023/04/06 08:40:19;;;;;;;4.68;2.92;;;;;;;12.87;46.61;150522.75;5042634;28;20034;-70
2023/04/06 08:42:52;;;;;;;7.38;2.90;;;;;;;12.79;46.84;150503.50;5042792;28;20025;-70
2023/04/06 08:45:21;;;;;;;7.43;2.92;;;;;;;13.64;45.83;150716.88;5042836;28;20041;-70
2023/04/06 08:47:50;;;;;;;7.07;2.70;;;;;;;14.17;44.00;150848.03;5042683;28;20030;-70
2023/04/06 08:50:17;;;;;;;8.00;2.90;;;;;;;14.71;45.03;150983.13;5042410;28;20036;-72
2023/04/06 08:52:47;;;;;;;5.07;2.40;;;;;;;14.25;43.03;150867.28;5042658;28;20029;-70
2023/04/06 08:55:13;;;;;;;8.35;2.83;;;;;;;13.46;44.21;150671.88;5038227;28;20034;-71
2023/04/06 08:57:40;;;;;;;5.82;2.92;;;;;;;13.26;45.90;150620.44;5025849;28;20034;-69
2023/04/06 09:00:09;;;;;;;9.90;2.97;;;;;;;13.33;44.73;150637.16;5045992;28;20087;-70
2023/04/06 09:02:39;;;;;;;6.78;3.13;;;;;;;13.54;45.04;150691.19;5046351;28;20128;-69
2023/04/06 09:05:05;;;;;;;7.47;2.78;;;;;;;12.90;45.37;150531.78;5046463;28;20049;-70
2023/04/06 09:07:31;;;;;;;9.18;2.53;;;;;;;12.91;45.54;150534.38;5046288;28;20218;-70
2023/04/06 09:09:56;;;;;;;7.40;3.20;;;;;;;13.23;44.42;150612.75;5046160;28;20026;-69
2023/04/06 09:12:30;;;;;;;7.72;2.83;;;;;;;13.89;44.29;150777.28;5046223;28;20021;-71
2023/04/06 09:14:56;;;;;;;4.88;2.70;;;;;;;13.74;43.33;150741.31;5046130;28;20072;-71
2023/04/06 09:17:27;;;;;;;5.82;2.65;;;;;;;13.92;42.63;150786.31;5045911;28;20048;-71
2023/04/06 09:19:53;;;;;;;6.93;2.42;;;;;;;14.15;42.63;150842.84;5026361;28;20030;-70
2023/04/06 09:22:19;;;;;;;14.32;3.50;;;;;;;14.40;41.20;150905.88;5044194;28;20037;-68
2023/04/06 09:24:47;;;;;;;6.55;2.97;;;;;;;13.92;41.81;150785.00;5045684;28;20033;-69
2023/04/06 09:27:14;;;;;;;6.63;2.60;;;;;;;13.63;42.13;150714.28;5045740;28;20021;-68
2023/04/06 09:29:45;;;;;;;10.57;2.90;;;;;;;13.62;42.75;150710.44;5045829;28;20029;-68
2023/04/06 09:32:12;;;;;;;6.80;2.58;;;;;;;13.57;42.88;150697.63;5033813;28;20374;-69
2023/04/06 09:34:40;;;;;;;9.35;2.60;;;;;;;13.50;42.93;150680.91;5032830;28;20030;-69
2023/04/06 09:37:27;;;;;;;7.78;2.60;;;;;;;13.15;42.99;150593.44;5045534;28;20045;-70
2023/04/06 09:40:03;;;;;;;9.07;3.05;;;;;;;13.63;43.40;150714.28;5045604;28;20104;-70
2023/04/06 09:42:28;;;;;;;8.70;2.85;;;;;;;13.87;42.55;150773.44;5045490;28;20085;-69
2023/04/06 09:44:54;;;;;;;8.10;2.65;;;;;;;13.55;42.16;150693.75;5045475;28;20272;-70
2023/04/06 09:47:22;;;;;;;7.97;2.55;;;;;;;13.20;42.59;150606.31;5045251;28;20037;-70
2023/04/06 09:49:50;;;;;;;6.75;2.65;;;;;;;13.39;42.18;150653.88;5045533;28;20040;-69
2023/04/06 09:52:17;;;;;;;9.45;3.03;;;;;;;13.56;42.04;150696.31;5044854;28;20029;-70
2023/04/06 09:54:46;;;;;;;9.63;2.72;;;;;;;13.43;42.27;150664.16;5045301;28;20097;-68
2023/04/06 09:57:24;;;;;;;8.13;3.08;;;;;;;13.39;42.73;150652.63;5044694;28;20034;-69
2023/04/06 10:00:11;;;;;;;6.82;2.30;;;;;;;13.40;42.43;150655.19;5028553;28;20041;-69
2023/04/06 10:02:55;;;;;;;5.30;2.92;;;;;;;13.57;41.57;150697.63;5055768;28;20281;-69
2023/04/06 10:05:29;;;;;;;7.72;2.72;;;;;;;13.58;41.98;150701.47;5044986;28;20112;-69
2023/04/06 10:07:59;;;;;;;11.75;3.35;;;;;;;13.31;42.65;150633.31;5043565;28;20091;-68
2023/04/06 10:10:25;;;;;;;10.75;2.90;;;;;;;13.67;41.89;150723.31;5043594;28;20131;-69
2023/04/06 10:12:51;;;;;;;12.00;3.10;;;;;;;13.73;41.71;150737.44;5059842;28;20321;-69
2023/04/06 10:15:18;;;;;;;9.45;2.40;;;;;;;13.70;42.07;150731.03;5044112;28;20032;-70
2023/04/06 10:17:44;;;;;;;9.27;2.42;;;;;;;13.46;41.94;150671.88;5041635;28;20290;-69
2023/04/06 10:20:22;;;;;;;6.65;2.35;;;;;;;13.59;42.54;150702.72;5043697;28;20029;-69
2023/04/06 10:23:19;;;;;;;5.13;2.53;;;;;;;13.58;42.60;150700.16;5044693;28;20044;-70
2023/04/06 10:25:58;;;;;;;10.52;2.80;;;;;;;13.73;42.16;150737.44;5037119;28;20069;-70
2023/04/06 10:28:25;;;;;;;15.07;3.53;;;;;;;13.88;41.97;150774.72;5039434;28;20041;-68
2023/04/06 10:30:58;;;;;;;6.35;2.53;;;;;;;13.88;41.71;150774.72;5026353;28;20029;-68
2023/04/06 10:33:25;;;;;;;8.57;2.90;;;;;;;13.91;41.89;150783.72;5044402;28;20043;-69
2023/04/06 10:35:50;;;;;;;7.82;2.90;;;;;;;14.13;41.21;150839.00;5044051;28;20051;-70
2023/04/06 10:38:20;;;;;;;11.73;3.30;;;;;;;13.84;42.03;150764.41;5044192;28;20370;-71
2023/04/06 10:40:49;;;;;;;7.05;2.50;;;;;;;13.64;42.66;150716.88;5060164;28;20221;-69
2023/04/06 10:43:22;;;;;;;6.85;2.72;;;;;;;13.83;42.15;150761.88;5044124;28;20048;-69
2023/04/06 10:46:00;;;;;;;6.10;2.75;;;;;;;14.03;41.53;150813.28;5037811;28;20025;-69
2023/04/06 10:48:40;;;;;;;10.02;2.90;;;;;;;14.27;41.70;150873.72;5058656;28;20033;-69
2023/04/06 10:51:12;;;;;;;7.57;2.65;;;;;;;14.14;40.86;150840.31;5042775;28;20033;-69
2023/04/06 10:53:37;;;;;;;15.02;3.53;;;;;;;14.37;41.21;150896.91;5039632;28;20030;-70
2023/04/06 10:56:09;;;;;;;9.75;3.40;;;;;;;14.06;41.29;150821.00;5032148;28;20281;-68
2023/04/06 10:58:34;;;;;;;6.18;2.35;;;;;;;14.08;42.15;150824.84;5030125;28;20036;-68
2023/04/06 11:01:00;;;;;;;7.60;2.55;;;;;;;14.15;41.15;150842.84;5044137;28;20258;-69
2023/04/06 11:03:27;;;;;;;11.27;2.65;;;;;;;13.83;41.07;150761.88;5044016;28;20032;-69
2023/04/06 11:05:52;;;;;;;8.18;2.88;;;;;;;14.11;41.69;150832.59;5043487;28;20037;-69
2023/04/06 11:08:31;;;;;;;9.65;3.25;;;;;;;14.24;40.60;150864.75;5043615;28;20253;-70
2023/04/06 11:11:06;;;;;;;7.32;2.65;;;;;;;14.00;40.50;150804.31;5042991;28;20060;-69
2023/04/06 11:13:42;;;;;;;15.55;2.78;;;;;;;14.07;40.64;150823.59;5042114;28;20037;-69
2023/04/06 11:16:15;;;;;;;6.32;2.15;;;;;;;13.79;41.39;150754.13;5024512;28;20026;-70
2023/04/06 11:19:09;;;;;;;7.30;2.60;;;;;;;13.68;41.03;150725.91;5040900;28;20021;-69
2023/04/06 11:21:41;;;;;;;10.95;2.53;;;;;;;13.70;41.59;150731.03;5039884;28;20037;-68
2023/04/06 11:24:07;;;;;;;;;;;;;;;13.82;40.91;150760.56;5039596;28;20030;-69
2023/04/06 11:26:53;;;;;;;10.95;2.60;;;;;;;13.97;41.59;150799.16;5023681;28;20060;-70
2023/04/06 11:29:20;;;;;;;6.03;2.63;;;;;;;13.89;41.48;150778.56;5035172;28;20037;-69